Time;durP1;ratioP1;P1;durP2;ratioP2;P2;SDS_P1;SDS_P2;PMS_P1;PMS_P2;Temp;Humidity;BMP_temperature;BMP_pressure;BME280_temperature;BME280_humidity;BME280_pressure;Samples;Min_cycle;Max_cycle;Signal;HPM_P1;HPM_P2
2023/09/03 00:02:20;;;;;;;0.03;0.03;;;;;;;;;;5068970;28;20282;-70
2023/09/03 00:04:46;;;;;;;0.00;0.00;;;;;;;;;;5063338;28;20206;-70
2023/09/03 00:07:14;;;;;;;0.03;0.03;;;;;;;;;;5068872;28;20271;-69
2023/09/03 00:09:40;;;;;;;0.00;0.00;;;;;;;;;;5063809;28;20271;-69
2023/09/03 00:12:07;;;;;;;0.10;0.10;;;;;;;;;;5068638;28;20254;-70
2023/09/03 00:14:33;;;;;;;0.00;0.00;;;;;;;;;;5063573;28;20377;-69
2023/09/03 00:16:59;;;;;;;0.03;0.03;;;;;;;;;;5067734;28;20324;-69
2023/09/03 00:19:26;;;;;;;0.00;0.00;;;;;;;;;;5064852;28;20454;-69
2023/09/03 00:21:52;;;;;;;0.10;0.10;;;;;;;;;;5066745;28;20241;-69
2023/09/03 00:24:20;;;;;;;0.10;0.10;;;;;;;;;;5065219;28;20310;-69
2023/09/03 00:26:46;;;;;;;0.10;0.10;;;;;;;;;;5065874;28;20303;-69
2023/09/03 00:29:12;;;;;;;0.00;0.00;;;;;;;;;;5066195;28;20209;-69
2023/09/03 00:31:39;;;;;;;0.08;0.08;;;;;;;;;;5064935;28;20579;-69
2023/09/03 00:34:06;;;;;;;0.10;0.10;;;;;;;;;;5067188;28;20447;-69
2023/09/03 00:36:32;;;;;;;0.10;0.10;;;;;;;;;;5064103;28;20382;-70
2023/09/03 00:38:58;;;;;;;0.10;0.10;;;;;;;;;;5067569;28;20228;-71
2023/09/03 00:41:26;;;;;;;0.03;0.03;;;;;;;;;;5062998;28;20300;-69
2023/09/03 00:43:53;;;;;;;0.10;0.10;;;;;;;;;;5068858;28;20213;-69
2023/09/03 00:46:19;;;;;;;0.03;0.03;;;;;;;;;;5062158;28;20276;-69
2023/09/03 00:48:45;;;;;;;0.10;0.10;;;;;;;;;;5069560;28;20395;-69
2023/09/03 00:51:12;;;;;;;0.08;0.08;;;;;;;;;;5061115;28;20240;-69
2023/09/03 00:53:39;;;;;;;0.10;0.10;;;;;;;;;;5070307;28;20238;-69
2023/09/03 00:56:07;;;;;;;0.10;0.10;;;;;;;;;;5060190;28;20248;-69
2023/09/03 00:58:35;;;;;;;0.10;0.10;;;;;;;;;;5070829;28;20256;-69
2023/09/03 01:01:02;;;;;;;0.10;0.10;;;;;;;;;;5059919;28;20415;-69
2023/09/03 01:03:28;;;;;;;0.10;0.10;;;;;;;;;;5071377;28;20227;-69
2023/09/03 01:05:55;;;;;;;0.03;0.03;;;;;;;;;;5058715;28;20274;-69
2023/09/03 01:08:21;;;;;;;0.10;0.10;;;;;;;;;;5072275;28;20217;-70
2023/09/03 01:10:52;;;;;;;0.10;0.10;;;;;;;;;;5057745;28;20241;-69
2023/09/03 01:13:21;;;;;;;0.10;0.10;;;;;;;;;;5072893;28;20202;-69
2023/09/03 01:15:50;;;;;;;0.10;0.10;;;;;;;;;;5058830;28;20257;-69
2023/09/03 01:18:18;;;;;;;0.08;0.08;;;;;;;;;;5076960;28;20402;-69
2023/09/03 01:20:51;;;;;;;0.03;0.03;;;;;;;;;;5061071;28;20239;-69
2023/09/03 01:23:33;;;;;;;0.10;0.10;;;;;;;;;;5076338;28;20294;-69
2023/09/03 01:26:05;;;;;;;0.25;0.25;;;;;;;;;;5063086;28;20235;-70
2023/09/03 01:28:37;;;;;;;0.10;0.10;;;;;;;;;;5074316;28;20216;-69
2023/09/03 01:31:05;;;;;;;0.10;0.10;;;;;;;;;;5063573;28;20245;-69
2023/09/03 01:33:33;;;;;;;0.00;0.00;;;;;;;;;;5074167;28;20558;-69
2023/09/03 01:36:00;;;;;;;0.10;0.10;;;;;;;;;;5062838;28;20313;-70
2023/09/03 01:38:27;;;;;;;0.10;0.10;;;;;;;;;;5074673;28;20233;-69
2023/09/03 01:40:55;;;;;;;0.10;0.10;;;;;;;;;;5061623;28;20308;-69
2023/09/03 01:43:21;;;;;;;0.10;0.10;;;;;;;;;;5075573;28;20279;-69
2023/09/03 01:45:52;;;;;;;0.10;0.10;;;;;;;;;;5061027;28;20245;-70
2023/09/03 01:48:24;;;;;;;0.10;0.10;;;;;;;;;;5075731;28;20242;-69
2023/09/03 01:50:53;;;;;;;0.00;0.00;;;;;;;;;;5061299;28;20246;-69
2023/09/03 01:53:22;;;;;;;0.00;0.00;;;;;;;;;;5075299;28;20277;-71
2023/09/03 01:55:53;;;;;;;0.00;0.00;;;;;;;;;;5061163;28;20335;-69
2023/09/03 01:58:21;;;;;;;0.10;0.10;;;;;;;;;;5075672;28;20446;-69
2023/09/03 02:00:48;;;;;;;0.00;0.00;;;;;;;;;;5060846;28;20332;-69
2023/09/03 02:03:17;;;;;;;0.00;0.00;;;;;;;;;;5075719;28;20225;-69
2023/09/03 02:05:43;;;;;;;0.10;0.10;;;;;;;;;;5060348;28;20252;-69
2023/09/03 02:08:09;;;;;;;0.10;0.10;;;;;;;;;;5076346;28;20218;-69
2023/09/03 02:10:36;;;;;;;0.00;0.00;;;;;;;;;;5059381;28;20239;-69
2023/09/03 02:13:02;;;;;;;0.10;0.10;;;;;;;;;;5077603;28;20221;-70
2023/09/03 02:15:29;;;;;;;0.10;0.10;;;;;;;;;;5057794;28;20278;-69
2023/09/03 02:17:55;;;;;;;0.10;0.10;;;;;;;;;;5078559;28;20231;-69
2023/09/03 02:20:23;;;;;;;0.00;0.00;;;;;;;;;;5057336;28;20388;-70
2023/09/03 02:22:50;;;;;;;0.03;0.03;;;;;;;;;;5079117;28;20240;-70
2023/09/03 02:25:16;;;;;;;0.10;0.10;;;;;;;;;;5056540;28;20274;-70
2023/09/03 02:27:43;;;;;;;0.03;0.03;;;;;;;;;;5079022;28;20195;-70
2023/09/03 02:30:09;;;;;;;0.00;0.00;;;;;;;;;;5055629;28;20415;-71
2023/09/03 02:32:36;;;;;;;0.10;0.10;;;;;;;;;;5080377;28;20208;-69
2023/09/03 02:35:02;;;;;;;0.00;0.00;;;;;;;;;;5065637;28;20212;-70
2023/09/03 02:37:30;;;;;;;0.10;0.10;;;;;;;;;;5070270;28;20247;-68
2023/09/03 02:39:56;;;;;;;0.20;0.20;;;;;;;;;;5065451;28;20241;-68
2023/09/03 02:42:24;;;;;;;0.10;0.10;;;;;;;;;;5070340;28;20307;-68
2023/09/03 02:44:50;;;;;;;0.10;0.10;;;;;;;;;;5065264;28;20201;-68
2023/09/03 02:47:17;;;;;;;0.10;0.10;;;;;;;;;;5070238;28;20239;-67
2023/09/03 02:49:43;;;;;;;0.10;0.10;;;;;;;;;;5065321;28;20453;-69
2023/09/03 02:52:09;;;;;;;0.10;0.10;;;;;;;;;;5070091;28;20435;-69
2023/09/03 02:54:37;;;;;;;0.08;0.08;;;;;;;;;;5064591;28;20260;-68
2023/09/03 02:57:04;;;;;;;0.10;0.10;;;;;;;;;;5069428;28;20240;-69
2023/09/03 02:59:31;;;;;;;0.00;0.00;;;;;;;;;;5065373;28;20231;-68
2023/09/03 03:01:57;;;;;;;0.10;0.10;;;;;;;;;;5068674;28;20461;-68
2023/09/03 03:04:24;;;;;;;0.00;0.00;;;;;;;;;;5066180;28;20232;-69
2023/09/03 03:06:50;;;;;;;0.00;0.00;;;;;;;;;;5067562;28;20253;-68
2023/09/03 03:09:17;;;;;;;0.10;0.10;;;;;;;;;;5067019;28;20213;-69
2023/09/03 03:11:46;;;;;;;0.00;0.00;;;;;;;;;;5066439;28;20252;-68
2023/09/03 03:14:13;;;;;;;0.10;0.10;;;;;;;;;;5067559;28;20211;-69
2023/09/03 03:16:39;;;;;;;0.00;0.00;;;;;;;;;;5065876;28;20285;-68
2023/09/03 03:19:06;;;;;;;0.10;0.10;;;;;;;;;;5068050;28;20278;-69
2023/09/03 03:21:32;;;;;;;0.45;0.45;;;;;;;;;;5064833;28;20261;-68
2023/09/03 03:23:58;;;;;;;0.10;0.10;;;;;;;;;;5068566;28;20220;-71
2023/09/03 03:26:26;;;;;;;0.10;0.10;;;;;;;;;;5063846;28;20262;-68
2023/09/03 03:28:54;;;;;;;0.00;0.00;;;;;;;;;;5069825;28;20259;-68
2023/09/03 03:31:20;;;;;;;0.00;0.00;;;;;;;;;;5063091;28;20239;-69
2023/09/03 03:33:47;;;;;;;0.10;0.10;;;;;;;;;;5070393;28;20205;-68
2023/09/03 03:36:14;;;;;;;0.10;0.10;;;;;;;;;;5062335;28;20260;-69
2023/09/03 03:38:40;;;;;;;0.10;0.10;;;;;;;;;;5070288;28;20236;-68
2023/09/03 03:41:08;;;;;;;0.10;0.10;;;;;;;;;;5060936;28;20291;-69
2023/09/03 03:43:34;;;;;;;0.10;0.10;;;;;;;;;;5071778;28;20204;-68
2023/09/03 03:46:02;;;;;;;0.55;0.55;;;;;;;;;;5060420;28;20244;-69
2023/09/03 03:48:28;;;;;;;0.10;0.10;;;;;;;;;;5072230;28;20215;-68
2023/09/03 03:50:54;;;;;;;0.05;0.05;;;;;;;;;;5059973;28;20629;-68
2023/09/03 03:53:21;;;;;;;0.10;0.10;;;;;;;;;;5072962;28;20205;-69
2023/09/03 03:55:47;;;;;;;0.05;0.05;;;;;;;;;;5058597;28;20262;-68
2023/09/03 03:58:14;;;;;;;0.05;0.05;;;;;;;;;;5073819;28;20236;-68
2023/09/03 04:00:40;;;;;;;0.10;0.10;;;;;;;;;;5057642;28;20285;-68
2023/09/03 04:03:08;;;;;;;0.30;0.30;;;;;;;;;;5074471;28;20194;-69
2023/09/03 04:05:34;;;;;;;0.10;0.10;;;;;;;;;;5056974;28;20444;-69
2023/09/03 04:08:01;;;;;;;0.10;0.10;;;;;;;;;;5075783;28;20458;-68
2023/09/03 04:10:27;;;;;;;0.05;0.05;;;;;;;;;;5056048;28;20730;-68
2023/09/03 04:12:56;;;;;;;0.40;0.40;;;;;;;;;;5076809;28;20420;-69
2023/09/03 04:15:22;;;;;;;0.08;0.08;;;;;;;;;;5055425;28;20205;-68
2023/09/03 04:17:48;;;;;;;0.10;0.10;;;;;;;;;;5077089;28;20193;-68
2023/09/03 04:20:16;;;;;;;0.10;0.10;;;;;;;;;;5054382;28;20419;-68
2023/09/03 04:22:42;;;;;;;0.10;0.10;;;;;;;;;;5077752;28;20221;-69
2023/09/03 04:25:09;;;;;;;0.10;0.10;;;;;;;;;;5053636;28;20270;-70
2023/09/03 04:27:35;;;;;;;0.10;0.10;;;;;;;;;;5078511;28;20200;-68
2023/09/03 04:30:03;;;;;;;0.10;0.10;;;;;;;;;;5063779;28;20441;-69
2023/09/03 04:32:29;;;;;;;0.10;0.10;;;;;;;;;;5068707;28;20312;-69
2023/09/03 04:34:55;;;;;;;0.10;0.10;;;;;;;;;;5063660;28;20275;-69
2023/09/03 04:37:23;;;;;;;0.10;0.10;;;;;;;;;;5068638;28;20300;-69
2023/09/03 04:39:50;;;;;;;0.00;0.00;;;;;;;;;;5063467;28;20207;-71
2023/09/03 04:42:16;;;;;;;0.10;0.10;;;;;;;;;;5068413;28;20244;-69
2023/09/03 04:44:43;;;;;;;0.00;0.00;;;;;;;;;;5063524;28;20235;-69
2023/09/03 04:47:09;;;;;;;0.10;0.10;;;;;;;;;;5068552;28;20262;-68
2023/09/03 04:49:36;;;;;;;0.10;0.10;;;;;;;;;;5063513;28;20236;-69
2023/09/03 04:52:02;;;;;;;0.10;0.10;;;;;;;;;;5070928;28;20252;-69
2023/09/03 04:54:31;;;;;;;0.10;0.10;;;;;;;;;;5067584;28;20217;-69
2023/09/03 04:56:57;;;;;;;0.05;0.05;;;;;;;;;;5070959;28;20239;-69
2023/09/03 04:59:23;;;;;;;0.10;0.10;;;;;;;;;;5068498;28;20208;-70
2023/09/03 05:01:50;;;;;;;0.10;0.10;;;;;;;;;;5069720;28;20315;-71
2023/09/03 05:04:16;;;;;;;0.10;0.10;;;;;;;;;;5068895;28;20288;-69
2023/09/03 05:06:42;;;;;;;0.10;0.10;;;;;;;;;;5068891;28;20245;-69
2023/09/03 05:09:09;;;;;;;0.10;0.10;;;;;;;;;;5070088;28;20205;-69
2023/09/03 05:11:39;;;;;;;0.10;0.10;;;;;;;;;;5067881;28;20297;-70
2023/09/03 05:14:05;;;;;;;0.10;0.10;;;;;;;;;;5070708;28;20235;-69
2023/09/03 05:16:32;;;;;;;0.10;0.10;;;;;;;;;;5067209;28;20255;-69
2023/09/03 05:19:04;;;;;;;0.10;0.10;;;;;;;;;;5071123;28;20273;-70
2023/09/03 05:21:30;;;;;;;0.10;0.10;;;;;;;;;;5066974;28;20242;-69
2023/09/03 05:23:57;;;;;;;0.10;0.10;;;;;;;;;;5071460;28;20263;-69
2023/09/03 05:26:23;;;;;;;0.10;0.10;;;;;;;;;;5066158;28;20254;-69
2023/09/03 05:28:51;;;;;;;0.10;0.10;;;;;;;;;;5072261;28;20211;-69
2023/09/03 05:31:17;;;;;;;0.00;0.00;;;;;;;;;;5065024;28;20250;-69
2023/09/03 05:33:44;;;;;;;0.00;0.00;;;;;;;;;;5073135;28;20236;-70
2023/09/03 05:36:10;;;;;;;0.10;0.10;;;;;;;;;;5064085;28;20446;-69
2023/09/03 05:38:36;;;;;;;0.05;0.05;;;;;;;;;;5073931;28;20278;-69
2023/09/03 05:41:03;;;;;;;0.10;0.10;;;;;;;;;;5063198;28;20278;-70
2023/09/03 05:43:29;;;;;;;0.10;0.10;;;;;;;;;;5074540;28;20205;-70
2023/09/03 05:45:57;;;;;;;0.10;0.10;;;;;;;;;;5062178;28;20259;-69
2023/09/03 05:48:23;;;;;;;0.03;0.03;;;;;;;;;;5075248;28;20216;-70
2023/09/03 05:50:56;;;;;;;0.10;0.10;;;;;;;;;;5061162;28;20303;-69
2023/09/03 05:53:22;;;;;;;0.00;0.00;;;;;;;;;;5075436;28;20601;-70
2023/09/03 05:55:48;;;;;;;0.10;0.10;;;;;;;;;;5061134;28;20466;-69
2023/09/03 05:58:16;;;;;;;0.10;0.10;;;;;;;;;;5076309;28;20373;-69
2023/09/03 06:00:42;;;;;;;0.10;0.10;;;;;;;;;;5059830;28;20239;-69
2023/09/03 06:03:10;;;;;;;0.05;0.05;;;;;;;;;;5076292;28;20267;-67
2023/09/03 06:05:37;;;;;;;0.00;0.00;;;;;;;;;;5059224;28;20239;-67
2023/09/03 06:08:03;;;;;;;0.10;0.10;;;;;;;;;;5077140;28;20211;-70
2023/09/03 06:10:30;;;;;;;0.00;0.00;;;;;;;;;;5058093;28;20250;-69
2023/09/03 06:12:56;;;;;;;0.10;0.10;;;;;;;;;;5078171;28;20220;-69
2023/09/03 06:15:22;;;;;;;0.10;0.10;;;;;;;;;;5057571;28;20215;-69
2023/09/03 06:17:52;;;;;;;0.10;0.10;;;;;;;;;;5079325;28;20192;-70
2023/09/03 06:20:20;;;;;;;0.10;0.10;;;;;;;;;;5056943;28;20212;-69
2023/09/03 06:22:46;;;;;;;0.10;0.10;;;;;;;;;;5079640;28;20409;-70
2023/09/03 06:25:12;;;;;;;0.10;0.10;;;;;;;;;;5056145;28;20449;-70
2023/09/03 06:27:39;;;;;;;0.10;0.10;;;;;;;;;;5080417;28;20193;-69
2023/09/03 06:30:06;;;;;;;0.10;0.10;;;;;;;;;;5065609;28;20203;-70
2023/09/03 06:32:32;;;;;;;0.10;0.10;;;;;;;;;;5034062;28;20279;-69
2023/09/03 06:34:58;;;;;;;0.10;0.10;;;;;;;;;;5045184;28;20245;-70
2023/09/03 06:37:26;;;;;;;0.10;0.10;;;;;;;;;;5069530;28;20248;-70
2023/09/03 06:39:52;;;;;;;0.00;0.00;;;;;;;;;;5065506;28;20208;-70
2023/09/03 06:42:19;;;;;;;0.10;0.10;;;;;;;;;;5068777;28;20267;-69
2023/09/03 06:44:45;;;;;;;0.10;0.10;;;;;;;;;;5045380;28;20276;-69
2023/09/03 06:47:11;;;;;;;0.10;0.10;;;;;;;;;;5066909;28;20248;-69
2023/09/03 06:49:38;;;;;;;0.00;0.00;;;;;;;;;;5044908;28;20239;-69
2023/09/03 06:52:05;;;;;;;0.10;0.10;;;;;;;;;;5065874;28;20235;-70
2023/09/03 06:54:32;;;;;;;0.10;0.10;;;;;;;;;;5045501;28;20226;-69
2023/09/03 06:56:59;;;;;;;0.10;0.10;;;;;;;;;;5064244;28;20303;-72
2023/09/03 06:59:25;;;;;;;0.10;0.10;;;;;;;;;;5046952;28;20237;-70
2023/09/03 07:01:51;;;;;;;0.08;0.08;;;;;;;;;;5061420;28;20306;-70
2023/09/03 07:04:18;;;;;;;0.10;0.10;;;;;;;;;;5049792;28;20197;-70
2023/09/03 07:06:44;;;;;;;0.00;0.00;;;;;;;;;;5060176;28;20633;-67
2023/09/03 07:09:10;;;;;;;0.10;0.10;;;;;;;;;;5050967;28;20523;-69
2023/09/03 07:11:38;;;;;;;0.10;0.10;;;;;;;;;;5058276;28;20243;-69
2023/09/03 07:14:04;;;;;;;0.10;0.10;;;;;;;;;;5052322;28;20278;-70
2023/09/03 07:16:32;;;;;;;0.00;0.00;;;;;;;;;;5056405;28;20247;-70
2023/09/03 07:18:59;;;;;;;0.10;0.10;;;;;;;;;;5054206;28;20416;-71
2023/09/03 07:21:25;;;;;;;0.10;0.10;;;;;;;;;;5054857;28;20261;-70
2023/09/03 07:23:52;;;;;;;0.10;0.10;;;;;;;;;;5055511;28;20234;-70
2023/09/03 07:26:18;;;;;;;0.10;0.10;;;;;;;;;;5053032;28;20321;-69
2023/09/03 07:28:46;;;;;;;0.10;0.10;;;;;;;;;;5057513;28;20276;-67
2023/09/03 07:31:12;;;;;;;0.10;0.10;;;;;;;;;;5051459;28;20505;-69
2023/09/03 07:33:39;;;;;;;0.10;0.10;;;;;;;;;;5058728;28;20207;-69
2023/09/03 07:36:09;;;;;;;0.00;0.00;;;;;;;;;;5049565;28;20588;-69
2023/09/03 07:38:36;;;;;;;0.08;0.08;;;;;;;;;;5059469;28;20429;-69
2023/09/03 07:41:02;;;;;;;0.10;0.10;;;;;;;;;;5048272;28;20250;-69
2023/09/03 07:43:29;;;;;;;0.10;0.10;;;;;;;;;;5061283;28;20215;-70
2023/09/03 07:45:57;;;;;;;0.10;0.10;;;;;;;;;;5046429;28;20243;-69
2023/09/03 07:48:23;;;;;;;0.00;0.00;;;;;;;;;;5062789;28;20250;-69
2023/09/03 07:50:50;;;;;;;0.10;0.10;;;;;;;;;;5044768;28;20240;-69
2023/09/03 07:53:16;;;;;;;0.17;0.17;;;;;;;;;;5064572;28;20225;-69
2023/09/03 07:55:42;;;;;;;0.05;0.05;;;;;;;;;;5042799;28;20476;-69
2023/09/03 07:58:09;;;;;;;0.10;0.10;;;;;;;;;;5066574;28;20242;-69
2023/09/03 08:00:35;;;;;;;0.10;0.10;;;;;;;;;;5040979;28;20240;-69
2023/09/03 08:03:03;;;;;;;0.00;0.00;;;;;;;;;;5068554;28;20409;-70
2023/09/03 08:05:30;;;;;;;0.10;0.10;;;;;;;;;;5039404;28;20261;-69
2023/09/03 08:07:56;;;;;;;0.10;0.10;;;;;;;;;;5069598;28;20267;-69
2023/09/03 08:10:22;;;;;;;0.10;0.10;;;;;;;;;;5037767;28;20241;-70
2023/09/03 08:12:50;;;;;;;0.10;0.10;;;;;;;;;;5071832;28;20441;-69
2023/09/03 08:15:16;;;;;;;0.10;0.10;;;;;;;;;;5035968;28;20213;-69
2023/09/03 08:17:43;;;;;;;0.03;0.03;;;;;;;;;;5073202;28;20264;-69
2023/09/03 08:20:12;;;;;;;0.03;0.03;;;;;;;;;;5034057;28;20277;-72
2023/09/03 08:22:38;;;;;;;0.05;0.05;;;;;;;;;;5074690;28;20529;-69
2023/09/03 08:25:05;;;;;;;0.00;0.00;;;;;;;;;;5045038;28;20354;-71
2023/09/03 08:27:32;;;;;;;0.05;0.05;;;;;;;;;;5071916;28;20219;-71
2023/09/03 08:29:58;;;;;;;0.00;0.00;;;;;;;;;;5050024;28;20480;-69
2023/09/03 08:32:24;;;;;;;0.10;0.10;;;;;;;;;;5072032;28;20419;-70
2023/09/03 08:34:53;;;;;;;0.00;0.00;;;;;;;;;;5050404;28;20205;-69
2023/09/03 08:37:21;;;;;;;0.00;0.00;;;;;;;;;;5071982;28;20248;-69
2023/09/03 08:39:47;;;;;;;0.10;0.10;;;;;;;;;;5050367;28;20208;-69
2023/09/03 08:42:13;;;;;;;0.10;0.10;;;;;;;;;;5071985;28;20236;-69
2023/09/03 08:44:43;;;;;;;0.10;0.10;;;;;;;;;;5050322;28;20244;-70
2023/09/03 08:47:11;;;;;;;0.00;0.00;;;;;;;;;;5071844;28;20240;-69
2023/09/03 08:49:39;;;;;;;0.00;0.00;;;;;;;;;;5050160;28;20247;-69
2023/09/03 08:52:05;;;;;;;0.05;0.05;;;;;;;;;;5071145;28;20235;-71
2023/09/03 08:54:33;;;;;;;0.05;0.05;;;;;;;;;;5050148;28;20252;-67
2023/09/03 08:57:01;;;;;;;0.03;0.03;;;;;;;;;;5069533;28;20329;-70
2023/09/03 08:59:27;;;;;;;0.10;0.10;;;;;;;;;;5051742;28;20213;-70
2023/09/03 09:01:55;;;;;;;0.10;0.10;;;;;;;;;;5067845;28;20255;-70
2023/09/03 09:04:22;;;;;;;0.10;0.10;;;;;;;;;;5053374;28;20244;-70
2023/09/03 09:06:49;;;;;;;0.10;0.10;;;;;;;;;;5066645;28;20249;-70
2023/09/03 09:09:16;;;;;;;0.03;0.03;;;;;;;;;;5054509;28;20241;-70
2023/09/03 09:11:46;;;;;;;0.00;0.00;;;;;;;;;;5064806;28;20522;-69
2023/09/03 09:14:18;;;;;;;0.10;0.10;;;;;;;;;;5055710;28;20442;-70
2023/09/03 09:16:44;;;;;;;0.10;0.10;;;;;;;;;;5065222;28;20437;-70
2023/09/03 09:19:10;;;;;;;0.00;0.00;;;;;;;;;;5056043;28;20471;-69
2023/09/03 09:21:37;;;;;;;0.05;0.05;;;;;;;;;;5063103;28;20256;-70
2023/09/03 09:24:03;;;;;;;0.10;0.10;;;;;;;;;;5057935;28;20480;-69
2023/09/03 09:26:33;;;;;;;0.05;0.05;;;;;;;;;;5061330;28;20249;-68
2023/09/03 09:29:01;;;;;;;0.10;0.10;;;;;;;;;;5058705;28;20271;-71
2023/09/03 09:31:29;;;;;;;0.10;0.10;;;;;;;;;;5060559;28;20625;-68
2023/09/03 09:33:55;;;;;;;0.10;0.10;;;;;;;;;;5059814;28;20245;-70
2023/09/03 09:36:22;;;;;;;0.00;0.00;;;;;;;;;;5058723;28;20257;-69
2023/09/03 09:38:48;;;;;;;0.10;0.10;;;;;;;;;;5058515;28;20307;-70
2023/09/03 09:41:21;;;;;;;0.10;0.10;;;;;;;;;;5053843;28;20313;-71
2023/09/03 09:43:48;;;;;;;0.00;0.00;;;;;;;;;;5058472;28;20231;-72
2023/09/03 09:46:25;;;;;;;0.10;0.10;;;;;;;;;;5053547;28;20298;-71
2023/09/03 09:48:54;;;;;;;0.00;0.00;;;;;;;;;;5058122;28;20218;-72
2023/09/03 09:51:21;;;;;;;0.10;0.10;;;;;;;;;;5055333;28;20241;-72
2023/09/03 09:53:54;;;;;;;0.08;0.08;;;;;;;;;;5058509;28;20226;-72
2023/09/03 09:56:20;;;;;;;0.10;0.10;;;;;;;;;;5055195;28;20451;-73
2023/09/03 09:58:46;;;;;;;0.10;0.10;;;;;;;;;;5058425;28;20214;-72
2023/09/03 10:01:13;;;;;;;0.10;0.10;;;;;;;;;;5053054;28;20247;-73
2023/09/03 10:03:44;;;;;;;0.10;0.10;;;;;;;;;;5060388;28;20302;-72
2023/09/03 10:06:13;;;;;;;0.00;0.00;;;;;;;;;;5052502;28;20241;-72
2023/09/03 10:08:40;;;;;;;0.00;0.00;;;;;;;;;;5060762;28;20400;-72
2023/09/03 10:11:06;;;;;;;0.00;0.00;;;;;;;;;;5051144;28;20253;-72
2023/09/03 10:13:33;;;;;;;0.10;0.10;;;;;;;;;;5062339;28;20270;-71
2023/09/03 10:16:02;;;;;;;0.10;0.10;;;;;;;;;;5049138;28;20262;-73
2023/09/03 10:18:28;;;;;;;0.03;0.03;;;;;;;;;;5063277;28;20555;-72
2023/09/03 10:20:56;;;;;;;0.00;0.00;;;;;;;;;;5048017;28;20302;-72
2023/09/03 10:23:24;;;;;;;0.00;0.00;;;;;;;;;;5064319;28;20294;-73
2023/09/03 10:25:51;;;;;;;0.10;0.10;;;;;;;;;;5046855;28;20318;-72
2023/09/03 10:28:20;;;;;;;0.10;0.10;;;;;;;;;;5065582;28;20226;-72
2023/09/03 10:30:51;;;;;;;0.10;0.10;;;;;;;;;;5045854;28;20578;-72
2023/09/03 10:33:17;;;;;;;0.00;0.00;;;;;;;;;;5065949;28;20231;-75
2023/09/03 10:36:11;;;;;;;0.10;0.10;;;;;;;;;;5044752;28;20244;-72
2023/09/03 10:38:38;;;;;;;0.10;0.10;;;;;;;;;;5060455;28;20440;-72
2023/09/03 10:41:16;;;;;;;0.00;0.00;;;;;;;;;;5050187;28;20242;-74
2023/09/03 10:43:42;;;;;;;0.08;0.08;;;;;;;;;;5058967;28;20436;-74
2023/09/03 10:46:09;;;;;;;0.10;0.10;;;;;;;;;;5051045;28;20325;-75
2023/09/03 10:48:35;;;;;;;0.10;0.10;;;;;;;;;;5060208;28;20277;-75
2023/09/03 10:51:03;;;;;;;0.05;0.05;;;;;;;;;;5049218;28;20318;-75
2023/09/03 10:53:36;;;;;;;0.05;0.05;;;;;;;;;;5062189;28;20263;-75
2023/09/03 10:56:09;;;;;;;0.10;0.10;;;;;;;;;;5049480;28;20242;-75
2023/09/03 10:58:36;;;;;;;0.08;0.08;;;;;;;;;;5060197;28;20244;-75
2023/09/03 11:01:17;;;;;;;0.00;0.00;;;;;;;;;;5049338;28;20439;-76
2023/09/03 11:03:48;;;;;;;0.00;0.00;;;;;;;;;;5058225;28;20236;-75
2023/09/03 11:06:17;;;;;;;0.00;0.00;;;;;;;;;;5052291;28;20265;-75
2023/09/03 11:08:43;;;;;;;0.00;0.00;;;;;;;;;;5058577;28;20418;-75
2023/09/03 11:11:11;;;;;;;0.00;0.00;;;;;;;;;;5051129;28;20511;-75
2023/09/03 11:13:37;;;;;;;0.00;0.00;;;;;;;;;;5059545;28;20204;-75
2023/09/03 11:16:03;;;;;;;0.05;0.05;;;;;;;;;;5049274;28;20262;-76
2023/09/03 11:18:30;;;;;;;0.00;0.00;;;;;;;;;;5061649;28;20236;-75
2023/09/03 11:20:57;;;;;;;0.00;0.00;;;;;;;;;;5047248;28;20246;-75
2023/09/03 11:23:27;;;;;;;0.03;0.03;;;;;;;;;;5063137;28;20281;-75
2023/09/03 11:25:54;;;;;;;0.10;0.10;;;;;;;;;;5046619;28;20243;-75
2023/09/03 11:28:20;;;;;;;0.00;0.00;;;;;;;;;;5063845;28;20506;-74
2023/09/03 11:30:47;;;;;;;0.00;0.00;;;;;;;;;;5044487;28;20316;-75
2023/09/03 11:33:23;;;;;;;0.00;0.00;;;;;;;;;;5065702;28;20239;-75
2023/09/03 11:35:50;;;;;;;0.10;0.10;;;;;;;;;;5045303;28;20239;-75
2023/09/03 11:38:16;;;;;;;0.05;0.05;;;;;;;;;;5064984;28;20465;-74
2023/09/03 11:40:44;;;;;;;0.10;0.10;;;;;;;;;;5043427;28;20257;-76
2023/09/03 11:43:10;;;;;;;0.05;0.05;;;;;;;;;;5066346;28;20263;-74
2023/09/03 11:45:37;;;;;;;0.00;0.00;;;;;;;;;;5041731;28;20489;-75
2023/09/03 11:48:06;;;;;;;0.00;0.00;;;;;;;;;;5067793;28;20275;-75
2023/09/03 11:50:32;;;;;;;0.00;0.00;;;;;;;;;;5040564;28;20235;-75
2023/09/03 11:52:59;;;;;;;0.00;0.00;;;;;;;;;;5069452;28;20445;-75
2023/09/03 11:55:27;;;;;;;0.00;0.00;;;;;;;;;;5038202;28;20258;-75
2023/09/03 11:57:56;;;;;;;0.10;0.10;;;;;;;;;;5071021;28;20461;-75
2023/09/03 12:00:23;;;;;;;0.08;0.08;;;;;;;;;;5036192;28;20251;-75
2023/09/03 12:02:49;;;;;;;0.00;0.00;;;;;;;;;;5072859;28;20247;-75
2023/09/03 12:05:16;;;;;;;0.10;0.10;;;;;;;;;;5035918;28;20271;-75
2023/09/03 12:07:42;;;;;;;0.10;0.10;;;;;;;;;;5073685;28;20360;-74
2023/09/03 12:10:09;;;;;;;0.00;0.00;;;;;;;;;;5037147;28;20205;-75
2023/09/03 12:12:36;;;;;;;0.10;0.10;;;;;;;;;;5075343;28;20220;-75
2023/09/03 12:15:16;;;;;;;0.05;0.05;;;;;;;;;;5043939;28;20204;-75
2023/09/03 12:17:42;;;;;;;0.00;0.00;;;;;;;;;;5062275;28;20471;-75
2023/09/03 12:20:09;;;;;;;0.00;0.00;;;;;;;;;;5056681;28;20436;-76
2023/09/03 12:22:35;;;;;;;0.00;0.00;;;;;;;;;;5078433;28;20227;-73
2023/09/03 12:25:04;;;;;;;0.00;0.00;;;;;;;;;;5063813;28;20242;-74
2023/09/03 12:27:30;;;;;;;0.08;0.08;;;;;;;;;;5068828;28;20244;-75
2023/09/03 12:29:56;;;;;;;0.08;0.08;;;;;;;;;;5063830;28;20227;-74
2023/09/03 12:32:34;;;;;;;0.00;0.00;;;;;;;;;;5068721;28;20371;-74
2023/09/03 12:35:00;;;;;;;0.00;0.00;;;;;;;;;;5063740;28;20214;-75
2023/09/03 12:37:38;;;;;;;0.10;0.10;;;;;;;;;;5068623;28;20567;-74
2023/09/03 12:40:05;;;;;;;0.08;0.08;;;;;;;;;;5063717;28;20203;-75
2023/09/03 12:42:32;;;;;;;0.10;0.10;;;;;;;;;;5068567;28;20236;-74
2023/09/03 12:44:58;;;;;;;0.00;0.00;;;;;;;;;;5063130;28;20276;-75
2023/09/03 12:47:24;;;;;;;0.00;0.00;;;;;;;;;;5068533;28;20251;-75
2023/09/03 12:49:52;;;;;;;0.10;0.10;;;;;;;;;;5063603;28;20275;-74
2023/09/03 12:52:19;;;;;;;0.10;0.10;;;;;;;;;;5068385;28;20258;-74
2023/09/03 12:54:46;;;;;;;0.00;0.00;;;;;;;;;;5063071;28;20420;-74
2023/09/03 12:57:12;;;;;;;0.00;0.00;;;;;;;;;;5068426;28;20277;-73
2023/09/03 12:59:40;;;;;;;0.00;0.00;;;;;;;;;;5063504;28;20468;-74
2023/09/03 13:02:06;;;;;;;0.00;0.00;;;;;;;;;;5068038;28;20269;-74
2023/09/03 13:04:33;;;;;;;0.00;0.00;;;;;;;;;;5063283;28;20251;-74
2023/09/03 13:07:01;;;;;;;0.00;0.00;;;;;;;;;;5067341;28;20239;-75
2023/09/03 13:09:27;;;;;;;0.08;0.08;;;;;;;;;;5064156;28;20215;-74
2023/09/03 13:11:54;;;;;;;0.00;0.00;;;;;;;;;;5067648;28;20245;-74
2023/09/03 13:14:20;;;;;;;0.10;0.10;;;;;;;;;;5068769;28;20200;-74
2023/09/03 13:16:47;;;;;;;0.00;0.00;;;;;;;;;;5069033;28;20246;-74
2023/09/03 13:19:13;;;;;;;0.10;0.10;;;;;;;;;;5069811;28;20363;-74
2023/09/03 13:21:39;;;;;;;0.00;0.00;;;;;;;;;;5068328;28;20235;-74
2023/09/03 13:24:07;;;;;;;0.08;0.08;;;;;;;;;;5070367;28;20299;-74
2023/09/03 13:26:35;;;;;;;0.00;0.00;;;;;;;;;;5067318;28;20235;-75
2023/09/03 13:29:02;;;;;;;0.00;0.00;;;;;;;;;;5070987;28;20246;-75
2023/09/03 13:31:28;;;;;;;0.10;0.10;;;;;;;;;;5066607;28;20243;-75
2023/09/03 13:33:56;;;;;;;0.00;0.00;;;;;;;;;;5071655;28;20201;-74
2023/09/03 13:36:22;;;;;;;0.10;0.10;;;;;;;;;;5065699;28;20238;-74
2023/09/03 13:38:49;;;;;;;0.10;0.10;;;;;;;;;;5072273;28;20415;-74
2023/09/03 13:41:17;;;;;;;0.10;0.10;;;;;;;;;;5064982;28;20289;-74
2023/09/03 13:43:47;;;;;;;0.00;0.00;;;;;;;;;;5072620;28;20246;-74
2023/09/03 13:46:13;;;;;;;0.00;0.00;;;;;;;;;;5064512;28;20249;-74
2023/09/03 13:48:41;;;;;;;0.10;0.10;;;;;;;;;;5073150;28;20228;-74
2023/09/03 13:51:10;;;;;;;0.00;0.00;;;;;;;;;;5063663;28;20253;-74
2023/09/03 13:53:37;;;;;;;0.00;0.00;;;;;;;;;;5073182;28;20373;-74
2023/09/03 13:56:04;;;;;;;0.00;0.00;;;;;;;;;;5063101;28;20588;-74
2023/09/03 13:58:32;;;;;;;0.00;0.00;;;;;;;;;;5074232;28;20484;-74
2023/09/03 14:00:59;;;;;;;0.00;0.00;;;;;;;;;;5062265;28;20265;-74
2023/09/03 14:03:25;;;;;;;0.00;0.00;;;;;;;;;;5074639;28;20262;-74
2023/09/03 14:05:52;;;;;;;0.10;0.10;;;;;;;;;;5061508;28;20528;-73
2023/09/03 14:08:18;;;;;;;0.10;0.10;;;;;;;;;;5075239;28;20234;-73
2023/09/03 14:10:45;;;;;;;0.00;0.00;;;;;;;;;;5060446;28;20258;-73
2023/09/03 14:13:11;;;;;;;0.00;0.00;;;;;;;;;;5076139;28;20204;-73
2023/09/03 14:15:39;;;;;;;0.10;0.10;;;;;;;;;;5059220;28;20302;-74
2023/09/03 14:18:05;;;;;;;0.00;0.00;;;;;;;;;;5077186;28;20271;-74
2023/09/03 14:20:35;;;;;;;0.00;0.00;;;;;;;;;;5058663;28;21150;-75
2023/09/03 14:23:02;;;;;;;0.10;0.10;;;;;;;;;;5076365;28;20251;-75
2023/09/03 14:25:29;;;;;;;0.00;0.00;;;;;;;;;;5058225;28;20286;-74
2023/09/03 14:27:56;;;;;;;0.05;0.05;;;;;;;;;;5078362;28;20195;-73
2023/09/03 14:30:22;;;;;;;0.00;0.00;;;;;;;;;;5057302;28;20271;-74
2023/09/03 14:32:50;;;;;;;0.00;0.00;;;;;;;;;;5079196;28;20263;-73
2023/09/03 14:35:16;;;;;;;0.10;0.10;;;;;;;;;;5056460;28;20239;-74
2023/09/03 14:37:42;;;;;;;0.10;0.10;;;;;;;;;;5079733;28;20381;-74
2023/09/03 14:40:09;;;;;;;0.00;0.00;;;;;;;;;;5056123;28;20204;-74
2023/09/03 14:42:35;;;;;;;0.08;0.08;;;;;;;;;;5080523;28;20408;-74
2023/09/03 14:45:02;;;;;;;0.00;0.00;;;;;;;;;;5065316;28;20224;-74